sensor_id;sensor_type;location;lat;lon;timestamp;temperature;humidity
22202;DHT22;11266;51.522;6.302;2023-04-03T00:00:24;1.50;99.90
22202;DHT22;11266;51.522;6.302;2023-04-03T00:01:10;1.50;99.90
22202;DHT22;11266;51.522;6.302;2023-04-03T00:01:56;1.50;99.90
22202;DHT22;11266;51.522;6.302;2023-04-03T00:02:42;1.50;99.90
22202;DHT22;11266;51.522;6.302;2023-04-03T00:03:27;1.50;99.90
22202;DHT22;11266;51.522;6.302;2023-04-03T00:04:13;1.50;99.90
22202;DHT22;11266;51.522;6.302;2023-04-03T00:04:59;1.50;99.90
22202;DHT22;11266;51.522;6.302;2023-04-03T00:05:47;1.50;99.90
22202;DHT22;11266;51.522;6.302;2023-04-03T00:06:32;1.40;99.90
22202;DHT22;11266;51.522;6.302;2023-04-03T00:07:18;1.40;99.90
22202;DHT22;11266;51.522;6.302;2023-04-03T00:08:05;1.50;99.90
22202;DHT22;11266;51.522;6.302;2023-04-03T00:08:55;1.40;99.90
22202;DHT22;11266;51.522;6.302;2023-04-03T00:09:40;1.40;99.90
22202;DHT22;11266;51.522;6.302;2023-04-03T00:10:26;1.40;99.90
22202;DHT22;11266;51.522;6.302;2023-04-03T00:11:12;1.40;99.90
22202;DHT22;11266;51.522;6.302;2023-04-03T00:11:58;1.40;99.90
22202;DHT22;11266;51.522;6.302;2023-04-03T00:12:43;1.40;99.90
22202;DHT22;11266;51.522;6.302;2023-04-03T00:13:29;1.40;99.90
22202;DHT22;11266;51.522;6.302;2023-04-03T00:14:16;1.40;99.90
22202;DHT22;11266;51.522;6.302;2023-04-03T00:15:01;1.40;99.90
22202;DHT22;11266;51.522;6.302;2023-04-03T00:15:47;1.30;99.90
22202;DHT22;11266;51.522;6.302;2023-04-03T00:16:33;1.30;99.90
22202;DHT22;11266;51.522;6.302;2023-04-03T00:17:18;1.30;99.90
22202;DHT22;11266;51.522;6.302;2023-04-03T00:18:05;1.30;99.90
22202;DHT22;11266;51.522;6.302;2023-04-03T00:18:50;1.40;99.90
22202;DHT22;11266;51.522;6.302;2023-04-03T00:19:36;1.30;99.90
22202;DHT22;11266;51.522;6.302;2023-04-03T00:20:21;1.30;99.90
22202;DHT22;11266;51.522;6.302;2023-04-03T00:21:09;1.30;99.90
22202;DHT22;11266;51.522;6.302;2023-04-03T00:21:55;1.30;99.90
22202;DHT22;11266;51.522;6.302;2023-04-03T00:22:40;1.30;99.90
22202;DHT22;11266;51.522;6.302;2023-04-03T00:23:26;1.30;99.90
22202;DHT22;11266;51.522;6.302;2023-04-03T00:24:12;1.30;99.90
22202;DHT22;11266;51.522;6.302;2023-04-03T00:24:57;1.30;99.90
22202;DHT22;11266;51.522;6.302;2023-04-03T00:25:43;1.30;99.90
22202;DHT22;11266;51.522;6.302;2023-04-03T00:26:29;1.30;99.90
22202;DHT22;11266;51.522;6.302;2023-04-03T00:27:15;1.30;99.90
22202;DHT22;11266;51.522;6.302;2023-04-03T00:28:01;1.30;99.90
22202;DHT22;11266;51.522;6.302;2023-04-03T00:28:47;1.20;99.90
22202;DHT22;11266;51.522;6.302;2023-04-03T00:29:32;1.20;99.90
22202;DHT22;11266;51.522;6.302;2023-04-03T00:30:20;1.20;99.90
22202;DHT22;11266;51.522;6.302;2023-04-03T00:31:06;1.20;99.90
22202;DHT22;11266;51.522;6.302;2023-04-03T00:31:52;1.20;99.90
22202;DHT22;11266;51.522;6.302;2023-04-03T00:32:38;1.20;99.90
22202;DHT22;11266;51.522;6.302;2023-04-03T00:33:23;1.20;99.90
22202;DHT22;11266;51.522;6.302;2023-04-03T00:34:09;1.20;99.90
22202;DHT22;11266;51.522;6.302;2023-04-03T00:34:55;1.20;99.90
22202;DHT22;11266;51.522;6.302;2023-04-03T00:35:41;1.20;99.90
22202;DHT22;11266;51.522;6.302;2023-04-03T00:36:27;1.20;99.90
22202;DHT22;11266;51.522;6.302;2023-04-03T00:37:12;1.20;99.90
22202;DHT22;11266;51.522;6.302;2023-04-03T00:37:58;1.10;99.90
22202;DHT22;11266;51.522;6.302;2023-04-03T00:38:44;1.10;99.90
22202;DHT22;11266;51.522;6.302;2023-04-03T00:39:29;1.10;99.90
22202;DHT22;11266;51.522;6.302;2023-04-03T00:40:15;1.10;99.90
22202;DHT22;11266;51.522;6.302;2023-04-03T00:41:06;1.10;99.90
22202;DHT22;11266;51.522;6.302;2023-04-03T00:41:54;1.10;99.90
22202;DHT22;11266;51.522;6.302;2023-04-03T00:42:41;1.10;99.90
22202;DHT22;11266;51.522;6.302;2023-04-03T00:43:28;1.10;99.90
22202;DHT22;11266;51.522;6.302;2023-04-03T00:45:30;1.10;99.90
22202;DHT22;11266;51.522;6.302;2023-04-03T00:46:16;1.10;99.90
22202;DHT22;11266;51.522;6.302;2023-04-03T00:47:03;1.10;99.90
22202;DHT22;11266;51.522;6.302;2023-04-03T00:47:53;1.10;99.90
22202;DHT22;11266;51.522;6.302;2023-04-03T00:48:42;1.10;99.90
22202;DHT22;11266;51.522;6.302;2023-04-03T00:49:28;1.00;99.90
22202;DHT22;11266;51.522;6.302;2023-04-03T00:50:14;1.00;99.90
22202;DHT22;11266;51.522;6.302;2023-04-03T00:51:00;1.00;99.90
22202;DHT22;11266;51.522;6.302;2023-04-03T00:51:49;1.00;99.90
22202;DHT22;11266;51.522;6.302;2023-04-03T00:52:35;1.00;99.90
22202;DHT22;11266;51.522;6.302;2023-04-03T00:53:33;1.00;99.90
22202;DHT22;11266;51.522;6.302;2023-04-03T00:54:20;1.00;99.90
22202;DHT22;11266;51.522;6.302;2023-04-03T00:55:09;1.00;99.90
22202;DHT22;11266;51.522;6.302;2023-04-03T00:55:56;1.00;99.90
22202;DHT22;11266;51.522;6.302;2023-04-03T00:56:43;1.00;99.90
22202;DHT22;11266;51.522;6.302;2023-04-03T00:57:30;0.90;99.90
22202;DHT22;11266;51.522;6.302;2023-04-03T00:58:20;0.90;99.90
22202;DHT22;11266;51.522;6.302;2023-04-03T00:59:11;0.90;99.90
22202;DHT22;11266;51.522;6.302;2023-04-03T01:00:07;0.90;99.90
22202;DHT22;11266;51.522;6.302;2023-04-03T01:00:58;0.90;99.90
22202;DHT22;11266;51.522;6.302;2023-04-03T01:01:44;0.90;99.90
22202;DHT22;11266;51.522;6.302;2023-04-03T01:02:30;0.90;99.90
22202;DHT22;11266;51.522;6.302;2023-04-03T01:03:16;0.90;99.90
22202;DHT22;11266;51.522;6.302;2023-04-03T01:04:02;0.90;99.90
22202;DHT22;11266;51.522;6.302;2023-04-03T01:04:48;0.90;99.90
22202;DHT22;11266;51.522;6.302;2023-04-03T01:05:34;0.90;99.90
22202;DHT22;11266;51.522;6.302;2023-04-03T01:06:32;0.90;99.90
22202;DHT22;11266;51.522;6.302;2023-04-03T01:07:24;0.90;99.90
22202;DHT22;11266;51.522;6.302;2023-04-03T01:08:11;0.90;99.90
22202;DHT22;11266;51.522;6.302;2023-04-03T01:08:57;0.90;99.90
22202;DHT22;11266;51.522;6.302;2023-04-03T01:09:45;0.90;99.90
22202;DHT22;11266;51.522;6.302;2023-04-03T01:10:32;0.80;99.90
22202;DHT22;11266;51.522;6.302;2023-04-03T01:11:18;0.80;99.90
22202;DHT22;11266;51.522;6.302;2023-04-03T01:13:17;0.80;99.90
22202;DHT22;11266;51.522;6.302;2023-04-03T01:14:03;0.80;99.90
22202;DHT22;11266;51.522;6.302;2023-04-03T01:14:53;0.80;99.90
22202;DHT22;11266;51.522;6.302;2023-04-03T01:15:39;0.80;99.90
22202;DHT22;11266;51.522;6.302;2023-04-03T01:16:25;0.80;99.90
22202;DHT22;11266;51.522;6.302;2023-04-03T01:18:22;0.80;99.90
22202;DHT22;11266;51.522;6.302;2023-04-03T01:19:13;0.80;99.90
22202;DHT22;11266;51.522;6.302;2023-04-03T01:24:42;0.70;99.90
22202;DHT22;11266;51.522;6.302;2023-04-03T01:25:33;0.70;99.90
22202;DHT22;11266;51.522;6.302;2023-04-03T01:26:19;0.70;99.90
22202;DHT22;11266;51.522;6.302;2023-04-03T01:27:06;0.70;99.90
22202;DHT22;11266;51.522;6.302;2023-04-03T01:27:53;0.70;99.90
22202;DHT22;11266;51.522;6.302;2023-04-03T01:28:39;0.70;99.90
22202;DHT22;11266;51.522;6.302;2023-04-03T01:29:25;0.60;99.90
22202;DHT22;11266;51.522;6.302;2023-04-03T01:30:12;0.60;99.90
22202;DHT22;11266;51.522;6.302;2023-04-03T01:31:06;0.60;99.90
22202;DHT22;11266;51.522;6.302;2023-04-03T01:31:57;0.60;99.90
22202;DHT22;11266;51.522;6.302;2023-04-03T01:32:43;0.60;99.90
22202;DHT22;11266;51.522;6.302;2023-04-03T01:33:29;0.60;99.90
22202;DHT22;11266;51.522;6.302;2023-04-03T01:34:15;0.60;99.90
22202;DHT22;11266;51.522;6.302;2023-04-03T01:35:01;0.60;99.90
22202;DHT22;11266;51.522;6.302;2023-04-03T01:35:46;0.60;99.90
22202;DHT22;11266;51.522;6.302;2023-04-03T01:36:34;0.60;99.90
22202;DHT22;11266;51.522;6.302;2023-04-03T01:37:20;0.60;99.90
22202;DHT22;11266;51.522;6.302;2023-04-03T01:38:06;0.70;99.90
22202;DHT22;11266;51.522;6.302;2023-04-03T01:38:53;0.70;99.90
22202;DHT22;11266;51.522;6.302;2023-04-03T01:39:38;0.70;99.90
22202;DHT22;11266;51.522;6.302;2023-04-03T01:40:25;0.70;99.90
22202;DHT22;11266;51.522;6.302;2023-04-03T01:41:11;0.70;99.90
22202;DHT22;11266;51.522;6.302;2023-04-03T01:41:57;0.70;99.90
22202;DHT22;11266;51.522;6.302;2023-04-03T01:42:44;0.70;99.90
22202;DHT22;11266;51.522;6.302;2023-04-03T01:43:30;0.70;99.90
22202;DHT22;11266;51.522;6.302;2023-04-03T01:44:16;0.70;99.90
22202;DHT22;11266;51.522;6.302;2023-04-03T01:45:02;0.70;99.90
22202;DHT22;11266;51.522;6.302;2023-04-03T01:45:48;0.70;99.90
22202;DHT22;11266;51.522;6.302;2023-04-03T01:46:37;0.70;99.90
22202;DHT22;11266;51.522;6.302;2023-04-03T01:47:23;0.80;99.90
22202;DHT22;11266;51.522;6.302;2023-04-03T01:48:09;0.80;99.90
22202;DHT22;11266;51.522;6.302;2023-04-03T01:48:54;0.80;99.90
22202;DHT22;11266;51.522;6.302;2023-04-03T01:49:40;0.80;99.90
22202;DHT22;11266;51.522;6.302;2023-04-03T01:50:26;0.80;99.90
22202;DHT22;11266;51.522;6.302;2023-04-03T01:51:12;0.80;99.90
22202;DHT22;11266;51.522;6.302;2023-04-03T01:51:58;0.90;99.90
22202;DHT22;11266;51.522;6.302;2023-04-03T01:52:43;0.90;99.90
22202;DHT22;11266;51.522;6.302;2023-04-03T01:53:29;0.90;99.90
22202;DHT22;11266;51.522;6.302;2023-04-03T01:54:15;0.90;99.90
22202;DHT22;11266;51.522;6.302;2023-04-03T01:55:00;0.90;99.90
22202;DHT22;11266;51.522;6.302;2023-04-03T01:55:46;0.90;99.90
22202;DHT22;11266;51.522;6.302;2023-04-03T01:56:32;1.00;99.90
22202;DHT22;11266;51.522;6.302;2023-04-03T01:57:20;1.00;99.90
22202;DHT22;11266;51.522;6.302;2023-04-03T01:58:05;1.00;99.90
22202;DHT22;11266;51.522;6.302;2023-04-03T01:58:51;1.00;99.90
22202;DHT22;11266;51.522;6.302;2023-04-03T01:59:36;1.00;99.90
22202;DHT22;11266;51.522;6.302;2023-04-03T02:00:22;1.00;99.90
22202;DHT22;11266;51.522;6.302;2023-04-03T02:01:08;1.00;99.90
22202;DHT22;11266;51.522;6.302;2023-04-03T02:01:53;1.00;99.90
22202;DHT22;11266;51.522;6.302;2023-04-03T02:02:39;1.00;99.90
22202;DHT22;11266;51.522;6.302;2023-04-03T02:03:25;1.00;99.90
22202;DHT22;11266;51.522;6.302;2023-04-03T02:04:11;1.00;99.90
22202;DHT22;11266;51.522;6.302;2023-04-03T02:04:57;1.00;99.90
22202;DHT22;11266;51.522;6.302;2023-04-03T02:05:43;1.00;99.90
22202;DHT22;11266;51.522;6.302;2023-04-03T02:06:28;1.00;99.90
22202;DHT22;11266;51.522;6.302;2023-04-03T02:07:14;1.00;99.90
22202;DHT22;11266;51.522;6.302;2023-04-03T02:08:00;1.00;99.90
22202;DHT22;11266;51.522;6.302;2023-04-03T02:08:45;1.00;99.90
22202;DHT22;11266;51.522;6.302;2023-04-03T02:09:31;1.00;99.90
22202;DHT22;11266;51.522;6.302;2023-04-03T02:10:17;1.00;99.90
22202;DHT22;11266;51.522;6.302;2023-04-03T02:11:02;1.00;99.90
22202;DHT22;11266;51.522;6.302;2023-04-03T02:11:48;1.00;99.90
22202;DHT22;11266;51.522;6.302;2023-04-03T02:12:34;1.00;99.90
22202;DHT22;11266;51.522;6.302;2023-04-03T02:13:19;1.00;99.90
22202;DHT22;11266;51.522;6.302;2023-04-03T02:14:06;1.00;99.90
22202;DHT22;11266;51.522;6.302;2023-04-03T02:14:51;1.00;99.90
22202;DHT22;11266;51.522;6.302;2023-04-03T02:15:40;1.00;99.90
22202;DHT22;11266;51.522;6.302;2023-04-03T02:16:26;1.00;99.90
22202;DHT22;11266;51.522;6.302;2023-04-03T02:17:11;1.10;99.90
22202;DHT22;11266;51.522;6.302;2023-04-03T02:17:57;1.10;99.90
22202;DHT22;11266;51.522;6.302;2023-04-03T02:18:42;1.10;99.90
22202;DHT22;11266;51.522;6.302;2023-04-03T02:19:28;1.10;99.90
22202;DHT22;11266;51.522;6.302;2023-04-03T02:20:14;1.10;99.90
22202;DHT22;11266;51.522;6.302;2023-04-03T02:20:59;1.20;99.90
22202;DHT22;11266;51.522;6.302;2023-04-03T02:21:45;1.20;99.90
22202;DHT22;11266;51.522;6.302;2023-04-03T02:22:31;1.20;99.90
22202;DHT22;11266;51.522;6.302;2023-04-03T02:23:16;1.20;99.90
22202;DHT22;11266;51.522;6.302;2023-04-03T02:24:05;1.10;99.90
22202;DHT22;11266;51.522;6.302;2023-04-03T02:24:50;1.10;99.90
22202;DHT22;11266;51.522;6.302;2023-04-03T02:25:37;1.10;99.90
22202;DHT22;11266;51.522;6.302;2023-04-03T02:26:22;1.10;99.90
22202;DHT22;11266;51.522;6.302;2023-04-03T02:27:08;1.20;99.90
22202;DHT22;11266;51.522;6.302;2023-04-03T02:27:57;1.20;99.90
22202;DHT22;11266;51.522;6.302;2023-04-03T02:28:43;1.20;99.90
22202;DHT22;11266;51.522;6.302;2023-04-03T02:29:28;1.10;99.90
22202;DHT22;11266;51.522;6.302;2023-04-03T02:30:14;1.20;99.90
22202;DHT22;11266;51.522;6.302;2023-04-03T02:31:03;1.10;99.90
22202;DHT22;11266;51.522;6.302;2023-04-03T02:31:49;1.10;99.90
22202;DHT22;11266;51.522;6.302;2023-04-03T02:32:35;1.10;99.90
22202;DHT22;11266;51.522;6.302;2023-04-03T02:33:21;1.10;99.90
22202;DHT22;11266;51.522;6.302;2023-04-03T02:34:06;1.20;99.90
22202;DHT22;11266;51.522;6.302;2023-04-03T02:34:52;1.10;99.90
22202;DHT22;11266;51.522;6.302;2023-04-03T02:35:39;1.10;99.90
22202;DHT22;11266;51.522;6.302;2023-04-03T02:36:25;1.10;99.90
22202;DHT22;11266;51.522;6.302;2023-04-03T02:37:11;1.20;99.90
22202;DHT22;11266;51.522;6.302;2023-04-03T02:37:56;1.10;99.90
22202;DHT22;11266;51.522;6.302;2023-04-03T02:38:42;1.10;99.90
22202;DHT22;11266;51.522;6.302;2023-04-03T02:39:28;1.10;99.90
22202;DHT22;11266;51.522;6.302;2023-04-03T02:40:16;1.10;99.90
22202;DHT22;11266;51.522;6.302;2023-04-03T02:41:09;1.10;99.90
22202;DHT22;11266;51.522;6.302;2023-04-03T02:41:54;1.20;99.90
22202;DHT22;11266;51.522;6.302;2023-04-03T02:42:40;1.10;99.90
22202;DHT22;11266;51.522;6.302;2023-04-03T02:43:26;1.10;99.90
22202;DHT22;11266;51.522;6.302;2023-04-03T02:44:12;1.10;99.90
22202;DHT22;11266;51.522;6.302;2023-04-03T02:44:57;1.20;99.90
22202;DHT22;11266;51.522;6.302;2023-04-03T02:45:45;1.10;99.90
22202;DHT22;11266;51.522;6.302;2023-04-03T02:46:31;1.10;99.90
22202;DHT22;11266;51.522;6.302;2023-04-03T02:47:17;1.10;99.90
22202;DHT22;11266;51.522;6.302;2023-04-03T02:48:03;1.20;99.90
22202;DHT22;11266;51.522;6.302;2023-04-03T02:48:48;1.10;99.90
22202;DHT22;11266;51.522;6.302;2023-04-03T02:49:34;1.20;99.90
22202;DHT22;11266;51.522;6.302;2023-04-03T02:50:19;1.10;99.90
22202;DHT22;11266;51.522;6.302;2023-04-03T02:51:05;1.10;99.90
22202;DHT22;11266;51.522;6.302;2023-04-03T02:51:51;1.10;99.90
22202;DHT22;11266;51.522;6.302;2023-04-03T02:52:37;1.10;99.90
22202;DHT22;11266;51.522;6.302;2023-04-03T02:53:23;1.10;99.90
22202;DHT22;11266;51.522;6.302;2023-04-03T02:54:08;1.10;99.90
22202;DHT22;11266;51.522;6.302;2023-04-03T02:54:54;1.10;99.90
22202;DHT22;11266;51.522;6.302;2023-04-03T02:55:40;1.10;99.90
22202;DHT22;11266;51.522;6.302;2023-04-03T02:56:25;1.20;99.90
22202;DHT22;11266;51.522;6.302;2023-04-03T02:57:12;1.10;99.90
22202;DHT22;11266;51.522;6.302;2023-04-03T02:57:57;1.10;99.90
22202;DHT22;11266;51.522;6.302;2023-04-03T02:58:43;1.10;99.90
22202;DHT22;11266;51.522;6.302;2023-04-03T02:59:29;1.10;99.90
22202;DHT22;11266;51.522;6.302;2023-04-03T03:00:15;1.20;99.90
22202;DHT22;11266;51.522;6.302;2023-04-03T03:01:01;1.20;99.90
22202;DHT22;11266;51.522;6.302;2023-04-03T03:01:47;1.20;99.90
22202;DHT22;11266;51.522;6.302;2023-04-03T03:02:32;1.20;99.90
22202;DHT22;11266;51.522;6.302;2023-04-03T03:03:18;1.20;99.90
22202;DHT22;11266;51.522;6.302;2023-04-03T03:04:06;1.20;99.90
22202;DHT22;11266;51.522;6.302;2023-04-03T03:04:51;1.20;99.90
22202;DHT22;11266;51.522;6.302;2023-04-03T03:05:37;1.10;99.90
22202;DHT22;11266;51.522;6.302;2023-04-03T03:06:23;1.10;99.90
22202;DHT22;11266;51.522;6.302;2023-04-03T03:07:08;1.10;99.90
22202;DHT22;11266;51.522;6.302;2023-04-03T03:07:54;1.10;99.90
22202;DHT22;11266;51.522;6.302;2023-04-03T03:08:43;1.10;99.90
22202;DHT22;11266;51.522;6.302;2023-04-03T03:09:29;1.10;99.90
22202;DHT22;11266;51.522;6.302;2023-04-03T03:10:14;1.10;99.90
22202;DHT22;11266;51.522;6.302;2023-04-03T03:11:03;1.10;99.90
22202;DHT22;11266;51.522;6.302;2023-04-03T03:11:49;1.10;99.90
22202;DHT22;11266;51.522;6.302;2023-04-03T03:12:34;1.10;99.90
22202;DHT22;11266;51.522;6.302;2023-04-03T03:13:20;1.00;99.90
22202;DHT22;11266;51.522;6.302;2023-04-03T03:14:06;1.00;99.90
22202;DHT22;11266;51.522;6.302;2023-04-03T03:14:51;1.00;99.90
22202;DHT22;11266;51.522;6.302;2023-04-03T03:15:40;1.00;99.90
22202;DHT22;11266;51.522;6.302;2023-04-03T03:16:26;1.00;99.90
22202;DHT22;11266;51.522;6.302;2023-04-03T03:17:11;1.00;99.90
22202;DHT22;11266;51.522;6.302;2023-04-03T03:17:57;1.00;99.90
22202;DHT22;11266;51.522;6.302;2023-04-03T03:18:42;1.00;99.90
22202;DHT22;11266;51.522;6.302;2023-04-03T03:19:28;1.00;99.90
22202;DHT22;11266;51.522;6.302;2023-04-03T03:20:14;1.10;99.90
22202;DHT22;11266;51.522;6.302;2023-04-03T03:21:01;1.00;99.90
22202;DHT22;11266;51.522;6.302;2023-04-03T03:21:47;1.00;99.90
22202;DHT22;11266;51.522;6.302;2023-04-03T03:22:37;1.00;99.90
22202;DHT22;11266;51.522;6.302;2023-04-03T03:23:24;1.00;99.90
22202;DHT22;11266;51.522;6.302;2023-04-03T03:24:11;1.00;99.90
22202;DHT22;11266;51.522;6.302;2023-04-03T03:24:57;1.00;99.90
22202;DHT22;11266;51.522;6.302;2023-04-03T03:25:46;1.00;99.90
22202;DHT22;11266;51.522;6.302;2023-04-03T03:26:31;1.00;99.90
22202;DHT22;11266;51.522;6.302;2023-04-03T03:27:17;1.00;99.90
22202;DHT22;11266;51.522;6.302;2023-04-03T03:28:03;1.00;99.90
22202;DHT22;11266;51.522;6.302;2023-04-03T03:28:48;1.00;99.90
22202;DHT22;11266;51.522;6.302;2023-04-03T03:29:34;1.00;99.90
22202;DHT22;11266;51.522;6.302;2023-04-03T03:30:20;1.00;99.90
22202;DHT22;11266;51.522;6.302;2023-04-03T03:31:06;1.00;99.90
22202;DHT22;11266;51.522;6.302;2023-04-03T03:31:54;1.00;99.90
22202;DHT22;11266;51.522;6.302;2023-04-03T03:32:40;1.10;99.90
22202;DHT22;11266;51.522;6.302;2023-04-03T03:33:26;1.00;99.90
22202;DHT22;11266;51.522;6.302;2023-04-03T03:34:12;1.00;99.90
22202;DHT22;11266;51.522;6.302;2023-04-03T03:34:58;1.00;99.90
22202;DHT22;11266;51.522;6.302;2023-04-03T03:35:44;1.00;99.90
22202;DHT22;11266;51.522;6.302;2023-04-03T03:36:30;1.00;99.90
22202;DHT22;11266;51.522;6.302;2023-04-03T03:37:16;1.00;99.90
22202;DHT22;11266;51.522;6.302;2023-04-03T03:38:01;1.10;99.90
22202;DHT22;11266;51.522;6.302;2023-04-03T03:38:47;1.10;99.90
22202;DHT22;11266;51.522;6.302;2023-04-03T03:39:32;1.10;99.90
22202;DHT22;11266;51.522;6.302;2023-04-03T03:40:18;1.10;99.90
22202;DHT22;11266;51.522;6.302;2023-04-03T03:41:04;1.10;99.90
22202;DHT22;11266;51.522;6.302;2023-04-03T03:41:50;1.10;99.90
22202;DHT22;11266;51.522;6.302;2023-04-03T03:42:37;1.10;99.90
22202;DHT22;11266;51.522;6.302;2023-04-03T03:43:23;1.10;99.90
22202;DHT22;11266;51.522;6.302;2023-04-03T03:44:09;1.10;99.90
22202;DHT22;11266;51.522;6.302;2023-04-03T03:44:54;1.10;99.90
22202;DHT22;11266;51.522;6.302;2023-04-03T03:45:40;1.10;99.90
22202;DHT22;11266;51.522;6.302;2023-04-03T03:46:26;1.10;99.90
22202;DHT22;11266;51.522;6.302;2023-04-03T03:47:11;1.10;99.90
22202;DHT22;11266;51.522;6.302;2023-04-03T03:47:57;1.00;99.90
22202;DHT22;11266;51.522;6.302;2023-04-03T03:48:45;1.10;99.90
22202;DHT22;11266;51.522;6.302;2023-04-03T03:49:31;1.10;99.90
22202;DHT22;11266;51.522;6.302;2023-04-03T03:50:17;1.10;99.90
22202;DHT22;11266;51.522;6.302;2023-04-03T03:51:02;1.10;99.90
22202;DHT22;11266;51.522;6.302;2023-04-03T03:51:48;1.10;99.90
22202;DHT22;11266;51.522;6.302;2023-04-03T03:52:34;1.10;99.90
22202;DHT22;11266;51.522;6.302;2023-04-03T03:53:20;1.10;99.90
22202;DHT22;11266;51.522;6.302;2023-04-03T03:54:06;1.10;99.90
22202;DHT22;11266;51.522;6.302;2023-04-03T03:54:51;1.10;99.90
22202;DHT22;11266;51.522;6.302;2023-04-03T03:55:37;1.10;99.90
22202;DHT22;11266;51.522;6.302;2023-04-03T03:56:23;1.10;99.90
22202;DHT22;11266;51.522;6.302;2023-04-03T03:57:09;1.10;99.90
22202;DHT22;11266;51.522;6.302;2023-04-03T03:57:54;1.10;99.90
22202;DHT22;11266;51.522;6.302;2023-04-03T03:58:40;1.20;99.90
22202;DHT22;11266;51.522;6.302;2023-04-03T03:59:26;1.10;99.90
22202;DHT22;11266;51.522;6.302;2023-04-03T04:00:11;1.10;99.90
22202;DHT22;11266;51.522;6.302;2023-04-03T04:01:01;1.10;99.90
22202;DHT22;11266;51.522;6.302;2023-04-03T04:01:47;1.10;99.90
22202;DHT22;11266;51.522;6.302;2023-04-03T04:02:33;1.10;99.90
22202;DHT22;11266;51.522;6.302;2023-04-03T04:03:18;1.00;99.90
22202;DHT22;11266;51.522;6.302;2023-04-03T04:04:04;1.10;99.90
22202;DHT22;11266;51.522;6.302;2023-04-03T04:04:50;1.10;99.90
22202;DHT22;11266;51.522;6.302;2023-04-03T04:05:36;1.10;99.90
22202;DHT22;11266;51.522;6.302;2023-04-03T04:06:22;1.10;99.90
22202;DHT22;11266;51.522;6.302;2023-04-03T04:07:07;1.10;99.90
22202;DHT22;11266;51.522;6.302;2023-04-03T04:07:53;1.00;99.90
22202;DHT22;11266;51.522;6.302;2023-04-03T04:08:38;1.10;99.90
22202;DHT22;11266;51.522;6.302;2023-04-03T04:09:24;1.10;99.90
22202;DHT22;11266;51.522;6.302;2023-04-03T04:10:10;1.10;99.90
22202;DHT22;11266;51.522;6.302;2023-04-03T04:10:55;1.10;99.90
22202;DHT22;11266;51.522;6.302;2023-04-03T04:11:43;1.10;99.90
22202;DHT22;11266;51.522;6.302;2023-04-03T04:12:29;1.10;99.90
22202;DHT22;11266;51.522;6.302;2023-04-03T04:13:15;1.10;99.90
22202;DHT22;11266;51.522;6.302;2023-04-03T04:14:00;1.10;99.90
22202;DHT22;11266;51.522;6.302;2023-04-03T04:14:46;1.10;99.90
22202;DHT22;11266;51.522;6.302;2023-04-03T04:15:32;1.10;99.90
22202;DHT22;11266;51.522;6.302;2023-04-03T04:16:17;1.10;99.90
22202;DHT22;11266;51.522;6.302;2023-04-03T04:17:03;1.10;99.90
22202;DHT22;11266;51.522;6.302;2023-04-03T04:17:49;1.10;99.90
22202;DHT22;11266;51.522;6.302;2023-04-03T04:18:34;1.10;99.90
22202;DHT22;11266;51.522;6.302;2023-04-03T04:19:20;1.10;99.90
22202;DHT22;11266;51.522;6.302;2023-04-03T04:20:06;1.10;99.90
22202;DHT22;11266;51.522;6.302;2023-04-03T04:20:52;1.10;99.90
22202;DHT22;11266;51.522;6.302;2023-04-03T04:21:37;1.10;99.90
22202;DHT22;11266;51.522;6.302;2023-04-03T04:22:23;1.10;99.90
22202;DHT22;11266;51.522;6.302;2023-04-03T04:23:08;1.10;99.90
22202;DHT22;11266;51.522;6.302;2023-04-03T04:23:54;1.10;99.90
22202;DHT22;11266;51.522;6.302;2023-04-03T04:24:40;1.10;99.90
22202;DHT22;11266;51.522;6.302;2023-04-03T04:25:26;1.10;99.90
22202;DHT22;11266;51.522;6.302;2023-04-03T04:26:11;1.10;99.90
22202;DHT22;11266;51.522;6.302;2023-04-03T04:26:57;1.10;99.90
22202;DHT22;11266;51.522;6.302;2023-04-03T04:27:42;1.10;99.90
22202;DHT22;11266;51.522;6.302;2023-04-03T04:28:28;1.10;99.90
22202;DHT22;11266;51.522;6.302;2023-04-03T04:29:14;1.10;99.90
22202;DHT22;11266;51.522;6.302;2023-04-03T04:30:00;1.20;99.90
22202;DHT22;11266;51.522;6.302;2023-04-03T04:30:46;1.10;99.90
22202;DHT22;11266;51.522;6.302;2023-04-03T04:31:32;1.10;99.90
22202;DHT22;11266;51.522;6.302;2023-04-03T04:32:17;1.20;99.90
22202;DHT22;11266;51.522;6.302;2023-04-03T04:33:03;1.10;99.90
22202;DHT22;11266;51.522;6.302;2023-04-03T04:33:48;1.10;99.90
22202;DHT22;11266;51.522;6.302;2023-04-03T04:34:34;1.10;99.90
22202;DHT22;11266;51.522;6.302;2023-04-03T04:35:23;1.10;99.90
22202;DHT22;11266;51.522;6.302;2023-04-03T04:36:09;1.10;99.90
22202;DHT22;11266;51.522;6.302;2023-04-03T04:36:54;1.10;99.90
22202;DHT22;11266;51.522;6.302;2023-04-03T04:37:40;1.10;99.90
22202;DHT22;11266;51.522;6.302;2023-04-03T04:38:28;1.10;99.90
22202;DHT22;11266;51.522;6.302;2023-04-03T04:39:14;1.10;99.90
22202;DHT22;11266;51.522;6.302;2023-04-03T04:40:00;1.10;99.90
22202;DHT22;11266;51.522;6.302;2023-04-03T04:40:47;1.10;99.90
22202;DHT22;11266;51.522;6.302;2023-04-03T04:41:33;1.10;99.90
22202;DHT22;11266;51.522;6.302;2023-04-03T04:42:19;1.10;99.90
22202;DHT22;11266;51.522;6.302;2023-04-03T04:43:05;1.10;99.90
22202;DHT22;11266;51.522;6.302;2023-04-03T04:43:52;1.10;99.90
22202;DHT22;11266;51.522;6.302;2023-04-03T04:44:40;1.10;99.90
22202;DHT22;11266;51.522;6.302;2023-04-03T04:45:26;1.10;99.90
22202;DHT22;11266;51.522;6.302;2023-04-03T04:46:11;1.20;99.90
22202;DHT22;11266;51.522;6.302;2023-04-03T04:46:57;1.10;99.90
22202;DHT22;11266;51.522;6.302;2023-04-03T04:47:43;1.10;99.90
22202;DHT22;11266;51.522;6.302;2023-04-03T04:48:28;1.10;99.90
22202;DHT22;11266;51.522;6.302;2023-04-03T04:49:14;1.10;99.90
22202;DHT22;11266;51.522;6.302;2023-04-03T04:50:00;1.10;99.90
22202;DHT22;11266;51.522;6.302;2023-04-03T04:50:45;1.10;99.90
22202;DHT22;11266;51.522;6.302;2023-04-03T04:51:31;1.10;99.90
22202;DHT22;11266;51.522;6.302;2023-04-03T04:52:17;1.10;99.90
22202;DHT22;11266;51.522;6.302;2023-04-03T04:53:02;1.10;99.90
22202;DHT22;11266;51.522;6.302;2023-04-03T04:53:49;1.10;99.90
22202;DHT22;11266;51.522;6.302;2023-04-03T04:54:35;1.10;99.90
22202;DHT22;11266;51.522;6.302;2023-04-03T04:55:20;1.10;99.90
22202;DHT22;11266;51.522;6.302;2023-04-03T04:56:06;1.00;99.90
22202;DHT22;11266;51.522;6.302;2023-04-03T04:56:52;1.00;99.90
22202;DHT22;11266;51.522;6.302;2023-04-03T04:57:37;1.10;99.90
22202;DHT22;11266;51.522;6.302;2023-04-03T04:58:24;1.10;99.90
22202;DHT22;11266;51.522;6.302;2023-04-03T04:59:09;1.00;99.90
22202;DHT22;11266;51.522;6.302;2023-04-03T04:59:55;1.10;99.90
22202;DHT22;11266;51.522;6.302;2023-04-03T05:00:41;1.00;99.90
22202;DHT22;11266;51.522;6.302;2023-04-03T05:01:26;1.00;99.90
22202;DHT22;11266;51.522;6.302;2023-04-03T05:02:12;1.00;99.90
22202;DHT22;11266;51.522;6.302;2023-04-03T05:02:57;1.00;99.90
22202;DHT22;11266;51.522;6.302;2023-04-03T05:03:46;1.00;99.90
22202;DHT22;11266;51.522;6.302;2023-04-03T05:04:33;1.00;99.90
22202;DHT22;11266;51.522;6.302;2023-04-03T05:05:18;1.00;99.90